Observation data for Seminole on 05/16/2018      Previous  Date  Next       Current Mesonet Observations  Soil Data  Daily Summary Page  Observations in Plain Language
KSM1 160500Z 10012KT 22/12 A2999 RMK A01 T02210118  RH  054%=      5-min Rain = 0
KSM1 160505Z 11014KT 22/12 A2999 RMK A01 T02240120  RH  054%=      5-min Rain = 0
KSM1 160510Z 11014G19KT 23/12 A2999 RMK A01 T02250120  RH  054%=      5-min Rain = 0
KSM1 160515Z 12013KT 22/12 A2999 RMK A01 T02240121  RH  054%=      5-min Rain = 0
KSM1 160520Z 12013G18KT 22/12 A2999 RMK A01 T02220119  RH  054%=      5-min Rain = 0
KSM1 160525Z 12013KT 22/12 A2999 RMK A01 T02220119  RH  054%=      5-min Rain = 0
KSM1 160530Z 12011KT 22/12 A2999 RMK A01 T02200120  RH  055%=      5-min Rain = 0
KSM1 160535Z 12012G17KT 22/12 A2999 RMK A01 T02180121  RH  056%=      5-min Rain = 0
KSM1 160540Z 12011G16KT 22/12 A2999 RMK A01 T02170122  RH  057%=      5-min Rain = 0
KSM1 160545Z 12013KT 22/12 A2999 RMK A01 T02170122  RH  057%=      5-min Rain = 0
KSM1 160550Z 12012KT 22/12 A2999 RMK A01 T02170121  RH  056%=      5-min Rain = 0
KSM1 160555Z 11010KT 22/12 A2999 RMK A01 T02160120  RH  057%=      5-min Rain = 0
KSM1 160600Z 11010KT 21/12 A2999 RMK A01 T02140120  RH  057%=      5-min Rain = 0
KSM1 160605Z 11011KT 21/12 A30 RMK A01 T02140120  RH  057%=      5-min Rain = 0
KSM1 160610Z 11009KT 21/12 A30 RMK A01 T02130119  RH  057%=      5-min Rain = 0
KSM1 160615Z 10011KT 21/12 A30 RMK A01 T02120119  RH  058%=      5-min Rain = 0
KSM1 160620Z 09012KT 21/12 A3001 RMK A01 T02110119  RH  058%=      5-min Rain = 0
KSM1 160625Z 09011KT 21/12 A3001 RMK A01 T02090119  RH  058%=      5-min Rain = 0
KSM1 160630Z 09011KT 21/12 A3001 RMK A01 T02080120  RH  059%=      5-min Rain = 0
KSM1 160635Z 09011KT 21/12 A3001 RMK A01 T02070120  RH  060%=      5-min Rain = 0
KSM1 160640Z 09011KT 21/12 A3001 RMK A01 T02060120  RH  060%=      5-min Rain = 0
KSM1 160645Z 09009KT 21/12 A3001 RMK A01 T02050120  RH  060%=      5-min Rain = 0
KSM1 160650Z 09009KT 20/12 A3001 RMK A01 T02040119  RH  060%=      5-min Rain = 0
KSM1 160655Z 09009KT 20/12 A3001 RMK A01 T02030119  RH  061%=      5-min Rain = 0
KSM1 160700Z 10009KT 20/12 A3001 RMK A01 T02020119  RH  061%=      5-min Rain = 0
KSM1 160705Z 10008KT 20/12 A3001 RMK A01 T02010119  RH  062%=      5-min Rain = 0
KSM1 160710Z 09008KT 20/12 A3001 RMK A01 T01990119  RH  062%=      5-min Rain = 0
KSM1 160715Z 09009KT 20/12 A3001 RMK A01 T01970119  RH  063%=      5-min Rain = 0
KSM1 160720Z 09010KT 20/12 A3001 RMK A01 T01970119  RH  063%=      5-min Rain = 0
KSM1 160725Z 09010KT 20/12 A3001 RMK A01 T01960118  RH  063%=      5-min Rain = 0
KSM1 160730Z 10010KT 20/12 A30 RMK A01 T01950117  RH  063%=      5-min Rain = 0
KSM1 160735Z 11011KT 20/12 A30 RMK A01 T01950117  RH  063%=      5-min Rain = 0
KSM1 160740Z 11011KT 20/12 A30 RMK A01 T01950117  RH  063%=      5-min Rain = 0
KSM1 160745Z 12012KT 20/12 A2999 RMK A01 T01950116  RH  063%=      5-min Rain = 0
KSM1 160750Z 11012KT 19/12 A2999 RMK A01 T01930115  RH  063%=      5-min Rain = 0
KSM1 160755Z 11012KT 19/11 A2999 RMK A01 T01930114  RH  063%=      5-min Rain = 0
KSM1 160800Z 11012KT 19/11 A2999 RMK A01 T01930114  RH  062%=      5-min Rain = 0
KSM1 160805Z 12011KT 19/11 A2999 RMK A01 T01920113  RH  062%=      5-min Rain = 0
KSM1 160810Z 12010KT 19/11 A2998 RMK A01 T01910113  RH  063%=      5-min Rain = 0
KSM1 160815Z 11009G14KT 19/11 A2998 RMK A01 T01900112  RH  063%=      5-min Rain = 0
KSM1 160820Z 11008KT 19/11 A2998 RMK A01 T01880113  RH  064%=      5-min Rain = 0
KSM1 160825Z 11008KT 19/11 A2999 RMK A01 T01860113  RH  065%=      5-min Rain = 0
KSM1 160830Z 10009KT 19/11 A2999 RMK A01 T01870112  RH  064%=      5-min Rain = 0
KSM1 160835Z 11009KT 19/11 A2999 RMK A01 T01880112  RH  064%=      5-min Rain = 0
KSM1 160840Z 11008KT 19/11 A2999 RMK A01 T01870112  RH  064%=      5-min Rain = 0
KSM1 160845Z 12007KT 19/11 A2999 RMK A01 T01850113  RH  065%=      5-min Rain = 0
KSM1 160850Z 12008KT 18/11 A2999 RMK A01 T01830113  RH  066%=      5-min Rain = 0
KSM1 160855Z 12007KT 18/11 A2998 RMK A01 T01820113  RH  066%=      5-min Rain = 0
KSM1 160900Z 12007KT 18/11 A2998 RMK A01 T01810113  RH  067%=      5-min Rain = 0
KSM1 160905Z 12008KT 18/11 A2998 RMK A01 T01800112  RH  067%=      5-min Rain = 0
KSM1 160910Z 12009KT 18/11 A2998 RMK A01 T01790112  RH  067%=      5-min Rain = 0
KSM1 160915Z 12009KT 18/11 A2998 RMK A01 T01790111  RH  067%=      5-min Rain = 0
KSM1 160920Z 12010KT 18/11 A2998 RMK A01 T01790111  RH  067%=      5-min Rain = 0
KSM1 160925Z 12011KT 18/11 A2998 RMK A01 T01790111  RH  067%=      5-min Rain = 0
KSM1 160930Z 12010KT 18/11 A2998 RMK A01 T01790111  RH  067%=      5-min Rain = 0
KSM1 160935Z 13010KT 18/11 A2998 RMK A01 T01780112  RH  067%=      5-min Rain = 0
KSM1 160940Z 13011KT 18/11 A2998 RMK A01 T01780112  RH  067%=      5-min Rain = 0
KSM1 160945Z 13011KT 18/11 A2998 RMK A01 T01790112  RH  067%=      5-min Rain = 0
KSM1 160950Z 13011KT 18/11 A2998 RMK A01 T01780111  RH  067%=      5-min Rain = 0
KSM1 160955Z 13010KT 18/11 A2998 RMK A01 T01780111  RH  067%=      5-min Rain = 0
KSM1 161000Z 13009KT 18/11 A2998 RMK A01 T01770111  RH  068%=      5-min Rain = 0
KSM1 161005Z 13009KT 18/11 A2998 RMK A01 T01750110  RH  068%=      5-min Rain = 0
KSM1 161010Z 14010KT 18/11 A2998 RMK A01 T01750110  RH  068%=      5-min Rain = 0
KSM1 161015Z 14010KT 18/11 A2998 RMK A01 T01750110  RH  068%=      5-min Rain = 0
KSM1 161020Z 14010KT 18/11 A2998 RMK A01 T01750110  RH  068%=      5-min Rain = 0
KSM1 161025Z 14011KT 18/11 A2998 RMK A01 T01750110  RH  068%=      5-min Rain = 0
KSM1 161030Z 14011KT 18/11 A2998 RMK A01 T01750110  RH  068%=      5-min Rain = 0
KSM1 161035Z 14011KT 18/11 A2998 RMK A01 T01760110  RH  068%=      5-min Rain = 0
KSM1 161040Z 14011KT 18/11 A2998 RMK A01 T01750111  RH  068%=      5-min Rain = 0
KSM1 161045Z 14010KT 17/11 A2998 RMK A01 T01730110  RH  069%=      5-min Rain = 0
KSM1 161050Z 14011KT 17/11 A2998 RMK A01 T01730110  RH  069%=      5-min Rain = 0
KSM1 161055Z 14011KT 17/11 A2998 RMK A01 T01720110  RH  069%=      5-min Rain = 0
KSM1 161100Z 14011KT 17/11 A2998 RMK A01 T01710110  RH  070%=      5-min Rain = 0
KSM1 161105Z 14010KT 17/11 A2998 RMK A01 T01700110  RH  070%=      5-min Rain = 0
KSM1 161110Z 14010KT 17/11 A2998 RMK A01 T01690110  RH  071%=      5-min Rain = 0
KSM1 161115Z 14010KT 17/11 A2998 RMK A01 T01690110  RH  071%=      5-min Rain = 0
KSM1 161120Z 14010KT 17/11 A2998 RMK A01 T01680110  RH  071%=      5-min Rain = 0
KSM1 161125Z 14011KT 17/11 A2998 RMK A01 T01670110  RH  071%=      5-min Rain = 0
KSM1 161130Z 14011KT 17/11 A2998 RMK A01 T01670110  RH  071%=      5-min Rain = 0
KSM1 161135Z 14011KT 17/11 A2998 RMK A01 T01670110  RH  072%=      5-min Rain = 0
KSM1 161140Z 15009KT 17/11 A2999 RMK A01 T01660110  RH  072%=      5-min Rain = 0
KSM1 161145Z 15008KT 17/11 A2999 RMK A01 T01650110  RH  072%=      5-min Rain = 0
KSM1 161150Z 14009KT 17/11 A2999 RMK A01 T01650110  RH  073%=      5-min Rain = 0
KSM1 161155Z 14009KT 17/11 A2999 RMK A01 T01650111  RH  073%=      5-min Rain = 0
KSM1 161200Z 15008KT 16/11 A2999 RMK A01 T01640111  RH  073%=      5-min Rain = 0
KSM1 161205Z 16007KT 16/11 A2999 RMK A01 T01620110  RH  074%=      5-min Rain = 0
KSM1 161210Z 16007KT 16/11 A30 RMK A01 T01620110  RH  074%=      5-min Rain = 0
KSM1 161215Z 15006KT 16/11 A30 RMK A01 T01620111  RH  074%=      5-min Rain = 0
KSM1 161220Z 08006KT 16/11 A3001 RMK A01 T01630111  RH  074%=      5-min Rain = 0
KSM1 161225Z 04009KT 16/11 A3003 RMK A01 T01630111  RH  074%=      5-min Rain = 0
KSM1 161230Z 06005KT 17/11 A3003 RMK A01 T01680112  RH  072%=      5-min Rain = 0
KSM1 161235Z 15006KT 17/11 A3002 RMK A01 T01720113  RH  071%=      5-min Rain = 0
KSM1 161240Z 16007KT 17/11 A3001 RMK A01 T01730114  RH  071%=      5-min Rain = 0
KSM1 161245Z 15007KT 17/11 A3002 RMK A01 T01740114  RH  070%=      5-min Rain = 0
KSM1 161250Z 14007KT 18/12 A3002 RMK A01 T01750115  RH  070%=      5-min Rain = 0
KSM1 161255Z 10006KT 18/12 A3003 RMK A01 T01770116  RH  070%=      5-min Rain = 0
KSM1 161300Z 10006KT 18/12 A3003 RMK A01 T01800117  RH  069%=      5-min Rain = 0
KSM1 161305Z 13008KT 18/12 A3003 RMK A01 T01820117  RH  068%=      5-min Rain = 0
KSM1 161310Z 14009KT 18/12 A3003 RMK A01 T01830118  RH  068%=      5-min Rain = 0
KSM1 161315Z 14009KT 19/12 A3003 RMK A01 T01850118  RH  068%=      5-min Rain = 0
KSM1 161320Z 15009KT 19/12 A3003 RMK A01 T01870119  RH  067%=      5-min Rain = 0
KSM1 161325Z 14010KT 19/12 A3003 RMK A01 T01890119  RH  066%=      5-min Rain = 0
KSM1 161330Z 15010KT 19/12 A3003 RMK A01 T01910120  RH  066%=      5-min Rain = 0
KSM1 161335Z 14010KT 19/12 A3003 RMK A01 T01940121  RH  065%=      5-min Rain = 0
KSM1 161340Z 15010KT 20/12 A3004 RMK A01 T01970121  RH  064%=      5-min Rain = 0
KSM1 161345Z 15012KT 20/12 A3005 RMK A01 T01990122  RH  063%=      5-min Rain = 0
KSM1 161350Z 15011KT 20/12 A3005 RMK A01 T02010123  RH  063%=      5-min Rain = 0
KSM1 161355Z 15012G17KT 20/12 A3005 RMK A01 T02040124  RH  062%=      5-min Rain = 0
KSM1 161400Z 16011KT 21/13 A3005 RMK A01 T02050127  RH  063%=      5-min Rain = 0
KSM1 161405Z 14012KT 21/13 A3005 RMK A01 T02070128  RH  063%=      5-min Rain = 0
KSM1 161410Z 14015KT 21/13 A3005 RMK A01 T02060130  RH  064%=      5-min Rain = 0
KSM1 161415Z 14015KT 21/13 A3006 RMK A01 T02060132  RH  065%=      5-min Rain = 0
KSM1 161420Z 15015KT 21/13 A3006 RMK A01 T02090133  RH  065%=      5-min Rain = 0
KSM1 161425Z 14013G18KT 21/13 A3006 RMK A01 T02130134  RH  063%=      5-min Rain = 0
KSM1 161430Z 14013KT 22/13 A3007 RMK A01 T02150134  RH  062%=      5-min Rain = 0
KSM1 161435Z 12011KT 22/14 A3008 RMK A01 T02170135  RH  062%=      5-min Rain = 0
KSM1 161440Z 12011KT 22/14 A3008 RMK A01 T02190136  RH  062%=      5-min Rain = 0
KSM1 161445Z 13013KT 23/14 A3008 RMK A01 T02270138  RH  060%=      5-min Rain = 0
KSM1 161450Z 12012G17KT 23/14 A3008 RMK A01 T02280142  RH  061%=      5-min Rain = 0
KSM1 161455Z 14011KT 22/14 A3008 RMK A01 T02240141  RH  062%=      5-min Rain = 0
KSM1 161500Z 13012G18KT 23/14 A3008 RMK A01 T02280143  RH  061%=      5-min Rain = 0
KSM1 161505Z 13013G18KT 23/14 A3008 RMK A01 T02310143  RH  060%=      5-min Rain = 0
KSM1 161510Z 10014G19KT 23/14 A3008 RMK A01 T02310141  RH  060%=      5-min Rain = 0
KSM1 161515Z 10014G19KT 24/14 A3009 RMK A01 T02360140  RH  057%=      5-min Rain = 0
KSM1 161520Z 10014KT 24/14 A3009 RMK A01 T02380139  RH  056%=      5-min Rain = 0
KSM1 161525Z 11014KT 23/14 A3009 RMK A01 T02320139  RH  058%=      5-min Rain = 0
KSM1 161530Z 12014KT 23/14 A3009 RMK A01 T02330139  RH  058%=      5-min Rain = 0
KSM1 161535Z 11013G19KT 24/14 A3009 RMK A01 T02360140  RH  057%=      5-min Rain = 0
KSM1 161540Z 12013KT 24/14 A3009 RMK A01 T02420140  RH  055%=      5-min Rain = 0
KSM1 161545Z 12012KT 24/14 A3009 RMK A01 T02410139  RH  055%=      5-min Rain = 0
KSM1 161550Z 13014KT 24/14 A3008 RMK A01 T02430139  RH  055%=      5-min Rain = 0
KSM1 161555Z 12013G18KT 25/14 A3008 RMK A01 T02490138  RH  052%=      5-min Rain = 0
KSM1 161600Z 12014G20KT 25/13 A3008 RMK A01 T02510133  RH  050%=      5-min Rain = 0
KSM1 161605Z 13012G19KT 26/13 A3007 RMK A01 T02550130  RH  048%=      5-min Rain = 0
KSM1 161610Z 14015G20KT 26/13 A3007 RMK A01 T02590126  RH  046%=      5-min Rain = 0
KSM1 161615Z 13014G19KT 26/13 A3007 RMK A01 T02580127  RH  046%=      5-min Rain = 0
KSM1 161620Z 14013G19KT 26/12 A3007 RMK A01 T02590119  RH  043%=      5-min Rain = 0
KSM1 161625Z 13015G23KT 26/12 A3007 RMK A01 T02610115  RH  042%=      5-min Rain = 0
KSM1 161630Z 12015G22KT 26/11 A3006 RMK A01 T02640113  RH  040%=      5-min Rain = 0
KSM1 161635Z 12014G20KT 27/11 A3006 RMK A01 T02680113  RH  039%=      5-min Rain = 0
KSM1 161640Z 15014G19KT 27/11 A3006 RMK A01 T02700114  RH  039%=      5-min Rain = 0
KSM1 161645Z 13015G20KT 27/11 A3006 RMK A01 T02680114  RH  040%=      5-min Rain = 0
KSM1 161650Z 13013G20KT 27/11 A3006 RMK A01 T02690113  RH  039%=      5-min Rain = 0
KSM1 161655Z 13017G23KT 27/11 A3005 RMK A01 T02720114  RH  039%=      5-min Rain = 0
KSM1 161700Z 13014G22KT 27/11 A3005 RMK A01 T02720112  RH  038%=      5-min Rain = 0
KSM1 161705Z 16013KT 28/11 A3005 RMK A01 T02750114  RH  038%=      5-min Rain = 0
KSM1 161710Z 15013KT 27/11 A3005 RMK A01 T02740114  RH  038%=      5-min Rain = 0
KSM1 161715Z 15013G18KT 28/11 A3005 RMK A01 T02760113  RH  038%=      5-min Rain = 0
KSM1 161720Z 14014G20KT 28/11 A3005 RMK A01 T02800113  RH  037%=      5-min Rain = 0
KSM1 161725Z 14010G15KT 28/11 A3005 RMK A01 T02810112  RH  036%=      5-min Rain = 0
KSM1 161730Z 14013G18KT 29/11 A3005 RMK A01 T02850110  RH  035%=      5-min Rain = 0
KSM1 161735Z 13012G17KT 29/11 A3005 RMK A01 T02850110  RH  035%=      5-min Rain = 0
KSM1 161740Z 14014G22KT 29/11 A3004 RMK A01 T02880106  RH  033%=      5-min Rain = 0
KSM1 161745Z 14010G15KT 29/10 A3004 RMK A01 T02850104  RH  034%=      5-min Rain = 0
KSM1 161750Z 14012G22KT 29/11 A3004 RMK A01 T02850107  RH  034%=      5-min Rain = 0
KSM1 161755Z 13011KT 29/11 A3004 RMK A01 T02890106  RH  033%=      5-min Rain = 0
KSM1 161800Z 13012G18KT 29/11 A3004 RMK A01 T02910105  RH  033%=      5-min Rain = 0
KSM1 161805Z 13010KT 29/10 A3004 RMK A01 T02920104  RH  032%=      5-min Rain = 0
KSM1 161810Z 13010G16KT 29/10 A3003 RMK A01 T02920104  RH  032%=      5-min Rain = 0
KSM1 161815Z 15009G15KT 30/11 A3003 RMK A01 T02960105  RH  032%=      5-min Rain = 0
KSM1 161820Z 17012G19KT 30/10 A3003 RMK A01 T02980102  RH  031%=      5-min Rain = 0
KSM1 161825Z 17009G14KT 30/10 A3003 RMK A01 T02960099  RH  030%=      5-min Rain = 0
KSM1 161830Z 13009G14KT 30/10 A3002 RMK A01 T02970101  RH  031%=      5-min Rain = 0
KSM1 161835Z 16009G17KT 30/10 A3002 RMK A01 T03010101  RH  030%=      5-min Rain = 0
KSM1 161840Z 17011KT 31/10 A3002 RMK A01 T03050098  RH  029%=      5-min Rain = 0
KSM1 161845Z 16010KT 31/10 A3002 RMK A01 T03080096  RH  028%=      5-min Rain = 0
KSM1 161850Z 15009G14KT 31/10 A3001 RMK A01 T03060096  RH  028%=      5-min Rain = 0
KSM1 161855Z 13009G14KT 31/10 A3001 RMK A01 T03060097  RH  028%=      5-min Rain = 0
KSM1 161900Z 13010G15KT 31/10 A3001 RMK A01 T03110098  RH  028%=      5-min Rain = 0
KSM1 161905Z 16009KT 31/10 A3001 RMK A01 T03100095  RH  027%=      5-min Rain = 0
KSM1 161910Z 18008G13KT 31/09 A30 RMK A01 T03120094  RH  027%=      5-min Rain = 0
KSM1 161915Z 14010G15KT 31/10 A30 RMK A01 T03130098  RH  027%=      5-min Rain = 0
KSM1 161920Z 16008KT 31/10 A30 RMK A01 T03140096  RH  027%=      5-min Rain = 0
KSM1 161925Z 18009G15KT 32/09 A30 RMK A01 T03150093  RH  026%=      5-min Rain = 0
KSM1 161930Z 19010KT 32/09 A30 RMK A01 T03170092  RH  026%=      5-min Rain = 0
KSM1 161935Z 19005KT 32/09 A30 RMK A01 T03150089  RH  025%=      5-min Rain = 0
KSM1 161940Z 15009G16KT 32/09 A2999 RMK A01 T03190094  RH  026%=      5-min Rain = 0
KSM1 161945Z 16009KT 32/10 A2999 RMK A01 T03210096  RH  026%=      5-min Rain = 0
KSM1 161950Z 18011KT 32/09 A2999 RMK A01 T03230094  RH  025%=      5-min Rain = 0
KSM1 161955Z 19010KT 32/10 A2999 RMK A01 T03230097  RH  026%=      5-min Rain = 0
KSM1 162000Z 18007G14KT 33/10 A2998 RMK A01 T03260096  RH  025%=      5-min Rain = 0
KSM1 162005Z 17008G14KT 33/08 A2998 RMK A01 T03310084  RH  022%=      5-min Rain = 0
KSM1 162010Z 16008G14KT 34/09 A2998 RMK A01 T03350092  RH  023%=      5-min Rain = 0
KSM1 162015Z 19010G15KT 33/10 A2998 RMK A01 T03270095  RH  025%=      5-min Rain = 0
KSM1 162020Z 15006G12KT 32/09 A2998 RMK A01 T03240088  RH  024%=      5-min Rain = 0
KSM1 162025Z 11002G7KT 32/09 A2997 RMK A01 T03210088  RH  024%=      5-min Rain = 0
KSM1 162030Z 16006KT 33/09 A2997 RMK A01 T03250090  RH  024%=      5-min Rain = 0
KSM1 162035Z 20008G13KT 33/08 A2997 RMK A01 T03320081  RH  022%=      5-min Rain = 0
KSM1 162040Z 16005G11KT 34/08 A2997 RMK A01 T03350083  RH  022%=      5-min Rain = 0
KSM1 162045Z 14003G8KT 33/07 A2996 RMK A01 T03310071  RH  021%=      5-min Rain = 0
KSM1 162050Z 13005KT 33/07 A2996 RMK A01 T03340074  RH  020%=      5-min Rain = 0
KSM1 162055Z 15010G18KT 34/08 A2995 RMK A01 T03360076  RH  021%=      5-min Rain = 0
KSM1 162100Z 16011G16KT 34/08 A2995 RMK A01 T03410081  RH  021%=      5-min Rain = 0
KSM1 162105Z 16006G13KT 34/08 A2995 RMK A01 T03390081  RH  021%=      5-min Rain = 0
KSM1 162110Z 16003G8KT 34/08 A2995 RMK A01 T03390075  RH  020%=      5-min Rain = 0
KSM1 162115Z 15008G13KT 34/07 A2995 RMK A01 T03390070  RH  019%=      5-min Rain = 0
KSM1 162120Z 23007G13KT 34/04 A2995 RMK A01 T03420035  RH  015%=      5-min Rain = 0
KSM1 162125Z 25006KT 34/03 A2994 RMK A01 T03440026  RH  014%=      5-min Rain = 0
KSM1 162130Z 21007G12KT 34/02 A2994 RMK A01 T03430019  RH  013%=      5-min Rain = 0
KSM1 162135Z 19003KT 35/02 A2994 RMK A01 T03470018  RH  013%=      5-min Rain = 0
KSM1 162140Z 19003G13KT 35/02 A2993 RMK A01 T03520023  RH  013%=      5-min Rain = 0
KSM1 162145Z 20006G11KT 35/03 A2994 RMK A01 T03460029  RH  014%=      5-min Rain = 0
KSM1 162150Z 22002G7KT 34/03 A2993 RMK A01 T03440028  RH  014%=      5-min Rain = 0
KSM1 162155Z 26004KT 35/03 A2993 RMK A01 T03470028  RH  014%=      5-min Rain = 0
KSM1 162200Z 21005G10KT 35/03 A2993 RMK A01 T03450025  RH  014%=      5-min Rain = 0
KSM1 162205Z 27004G9KT 35/01 A2993 RMK A01 T03460011  RH  012%=      5-min Rain = 0
KSM1 162210Z 30006KT 35/M01 A2992 RMK A01 T03491005  RH  011%=      5-min Rain = 0
KSM1 162215Z 32006G11KT 35/M01 A2992 RMK A01 T03501006  RH  011%=      5-min Rain = 0
KSM1 162220Z 30004KT 35/M00 A2992 RMK A01 T03471004  RH  011%=      5-min Rain = 0
KSM1 162225Z 23002KT 35/M00 A2992 RMK A01 T03511002  RH  011%=      5-min Rain = 0
KSM1 162230Z 15004KT 35/M00 A2992 RMK A01 T03491002  RH  011%=      5-min Rain = 0
KSM1 162235Z 24005KT 35/M00 A2992 RMK A01 T03481004  RH  011%=      5-min Rain = 0
KSM1 162240Z 22002KT 35/M01 A2991 RMK A01 T03481005  RH  011%=      5-min Rain = 0
KSM1 162245Z 24010KT 35/M00 A2991 RMK A01 T03491002  RH  011%=      5-min Rain = 0
KSM1 162250Z 20008G15KT 35/M00 A2991 RMK A01 T03491001  RH  011%=      5-min Rain = 0
KSM1 162255Z 19006G11KT 35/M00 A2991 RMK A01 T03481002  RH  011%=      5-min Rain = 0
KSM1 162300Z 21008KT 35/M00 A2991 RMK A01 T03481001  RH  011%=      5-min Rain = 0
KSM1 162305Z 23005G11KT 35/M00 A2991 RMK A01 T03461001  RH  011%=      5-min Rain = 0
KSM1 162310Z 26004KT 35/M00 A2991 RMK A01 T03461001  RH  011%=      5-min Rain = 0
KSM1 162315Z 29004G9KT 35/M00 A2991 RMK A01 T03461001  RH  011%=      5-min Rain = 0
KSM1 162320Z 23003G8KT 35/00 A2991 RMK A01 T03500001  RH  011%=      5-min Rain = 0
KSM1 162325Z 19004KT 35/00 A2991 RMK A01 T034700-0  RH  011%=      5-min Rain = 0
KSM1 162330Z 16001KT 35/00 A2991 RMK A01 T034700-0  RH  011%=      5-min Rain = 0
KSM1 162335Z 20002KT 35/M00 A2991 RMK A01 T03481001  RH  011%=      5-min Rain = 0
KSM1 162340Z 19005KT 35/M00 A2991 RMK A01 T03491001  RH  011%=      5-min Rain = 0
KSM1 162345Z 23007KT 35/M00 A2991 RMK A01 T03481004  RH  011%=      5-min Rain = 0
KSM1 162350Z 21007G14KT 35/M00 A299 RMK A01 T03461004  RH  011%=      5-min Rain = 0
KSM1 162355Z 23009KT 35/M01 A299 RMK A01 T03461005  RH  011%=      5-min Rain = 0
KSM1 170000Z 23008KT 34/M01 A299 RMK A01 T03431006  RH  011%=      5-min Rain = 0
KSM1 170005Z 22008KT 34/M01 A299 RMK A01 T03421006  RH  011%=      5-min Rain = 0
KSM1 170010Z 23009KT 34/M01 A299 RMK A01 T03431006  RH  011%=      5-min Rain = 0
KSM1 170015Z 24006KT 34/M01 A299 RMK A01 T03421006  RH  011%=      5-min Rain = 0
KSM1 170020Z 22005KT 34/M01 A299 RMK A01 T03411008  RH  011%=      5-min Rain = 0
KSM1 170025Z 23004KT 34/M01 A299 RMK A01 T03421007  RH  011%=      5-min Rain = 0
KSM1 170030Z 26004KT 34/M01 A299 RMK A01 T03431008  RH  011%=      5-min Rain = 0
KSM1 170035Z 27003KT 34/M01 A299 RMK A01 T03441008  RH  011%=      5-min Rain = 0
KSM1 170040Z 26002KT 34/M01 A299 RMK A01 T03431007  RH  011%=      5-min Rain = 0
KSM1 170045Z 24001KT 34/M01 A299 RMK A01 T03441006  RH  011%=      5-min Rain = 0
KSM1 170050Z 20002KT 35/M01 A299 RMK A01 T03461008  RH  011%=      5-min Rain = 0
KSM1 170055Z 19002KT 34/M01 A299 RMK A01 T03431007  RH  011%=      5-min Rain = 0
KSM1 170100Z 20002KT 34/M01 A299 RMK A01 T03411006  RH  011%=      5-min Rain = 0
KSM1 170105Z 22002KT 34/M01 A299 RMK A01 T03361010  RH  011%=      5-min Rain = 0
KSM1 170110Z 21002KT 34/M01 A299 RMK A01 T03361010  RH  011%=      5-min Rain = 0
KSM1 170115Z 21002KT 33/M01 A299 RMK A01 T03341011  RH  011%=      5-min Rain = 0
KSM1 170120Z 21002KT 33/M01 A299 RMK A01 T03321011  RH  011%=      5-min Rain = 0
KSM1 170125Z 21000KT 33/M01 A299 RMK A01 T03311011  RH  011%=      5-min Rain = 0
KSM1 170130Z 21000KT 33/M01 A299 RMK A01 T03301009  RH  011%=      5-min Rain = 0
KSM1 170135Z 00000KT 32/M01 A299 RMK A01 T03231006  RH  012%=      5-min Rain = 0
KSM1 170140Z 21001KT 31/M01 A299 RMK A01 T03141010  RH  013%=      5-min Rain = 0
KSM1 170145Z 21001KT 31/M01 A299 RMK A01 T03061011  RH  013%=      5-min Rain = 0
KSM1 170150Z 21001KT 30/M01 A299 RMK A01 T03011012  RH  013%=      5-min Rain = 0
KSM1 170155Z 21000KT 30/M01 A2991 RMK A01 T03001011  RH  013%=      5-min Rain = 0
KSM1 170200Z 21000KT 30/00 A2991 RMK A01 T02990004  RH  015%=      5-min Rain = 0
KSM1 170205Z 13001KT 29/02 A2991 RMK A01 T02890024  RH  019%=      5-min Rain = 0
KSM1 170210Z 13002KT 28/00 A2991 RMK A01 T02810001  RH  016%=      5-min Rain = 0
KSM1 170215Z 10004KT 28/M01 A2991 RMK A01 T02771009  RH  015%=      5-min Rain = 0
KSM1 170220Z 09013G21KT 27/03 A2992 RMK A01 T02730025  RH  021%=      5-min Rain = 0
KSM1 170225Z 11016G25KT 28/09 A2992 RMK A01 T02760093  RH  033%=      5-min Rain = 0
KSM1 170230Z 11018G23KT 27/10 A2992 RMK A01 T02730099  RH  035%=      5-min Rain = 0
KSM1 170235Z 11017G23KT 27/10 A2992 RMK A01 T02690100  RH  036%=      5-min Rain = 0
KSM1 170240Z 12016G21KT 27/10 A2993 RMK A01 T02670103  RH  037%=      5-min Rain = 0
KSM1 170245Z 12015G20KT 27/10 A2993 RMK A01 T02650104  RH  038%=      5-min Rain = 0
KSM1 170250Z 12014KT 26/11 A2993 RMK A01 T02620106  RH  039%=      5-min Rain = 0
KSM1 170255Z 12015KT 26/11 A2994 RMK A01 T02610107  RH  039%=      5-min Rain = 0
KSM1 170300Z 12016G21KT 26/11 A2994 RMK A01 T02600107  RH  040%=      5-min Rain = 0
KSM1 170305Z 12014KT 26/11 A2994 RMK A01 T02580109  RH  041%=      5-min Rain = 0
KSM1 170310Z 12012KT 26/11 A2994 RMK A01 T02560110  RH  041%=      5-min Rain = 0
KSM1 170315Z 12012KT 25/11 A2994 RMK A01 T02530111  RH  042%=      5-min Rain = 0
KSM1 170320Z 11012KT 25/11 A2995 RMK A01 T02510111  RH  043%=      5-min Rain = 0
KSM1 170325Z 12013KT 25/11 A2995 RMK A01 T02490110  RH  043%=      5-min Rain = 0
KSM1 170330Z 12013G18KT 25/11 A2995 RMK A01 T02490109  RH  043%=      5-min Rain = 0
KSM1 170335Z 12015KT 25/11 A2996 RMK A01 T02470110  RH  044%=      5-min Rain = 0
KSM1 170340Z 12015G20KT 24/11 A2996 RMK A01 T02440114  RH  045%=      5-min Rain = 0
KSM1 170345Z 12014G19KT 24/12 A2996 RMK A01 T02420115  RH  047%=      5-min Rain = 0
KSM1 170350Z 12013G18KT 24/12 A2996 RMK A01 T02390115  RH  047%=      5-min Rain = 0
KSM1 170355Z 12012KT 24/12 A2997 RMK A01 T02370115  RH  048%=      5-min Rain = 0
KSM1 170400Z 11013KT 24/11 A2997 RMK A01 T02350113  RH  048%=      5-min Rain = 0
KSM1 170405Z 12014KT 23/11 A2997 RMK A01 T02330113  RH  049%=      5-min Rain = 0
KSM1 170410Z 11014KT 23/11 A2997 RMK A01 T02310114  RH  049%=      5-min Rain = 0
KSM1 170415Z 12014G20KT 23/11 A2997 RMK A01 T02290113  RH  050%=      5-min Rain = 0
KSM1 170420Z 12013KT 23/11 A2997 RMK A01 T02270113  RH  050%=      5-min Rain = 0
KSM1 170425Z 12013KT 23/11 A2997 RMK A01 T02250114  RH  051%=      5-min Rain = 0
KSM1 170430Z 12013KT 22/11 A2997 RMK A01 T02230114  RH  052%=      5-min Rain = 0
KSM1 170435Z 12012KT 22/11 A2997 RMK A01 T02220114  RH  052%=      5-min Rain = 0
KSM1 170440Z 12013G18KT 22/12 A2997 RMK A01 T02210115  RH  053%=      5-min Rain = 0
KSM1 170445Z 12013KT 22/12 A2997 RMK A01 T02200115  RH  053%=      5-min Rain = 0
KSM1 170450Z 12012KT 22/12 A2997 RMK A01 T02200116  RH  054%=      5-min Rain = 0
KSM1 170455Z 12011KT 22/12 A2997 RMK A01 T02180118  RH  055%=      5-min Rain = 0

Page generated in 0.0357 seconds.